CDT,Max TemperatureF,Mean TemperatureF,Min TemperatureF,Max Dew PointF,MeanDew PointF,Min DewpointF,Max Humidity, Mean Humidity, Min Humidity, Max Sea Level PressureIn, Mean Sea Level PressureIn, Min Sea Level PressureIn, Max VisibilityMiles, Mean VisibilityMiles, Min VisibilityMiles, Max Wind SpeedMPH, Mean Wind SpeedMPH, Max Gust SpeedMPH,PrecipitationIn, CloudCover, Events, WindDirDegrees
2013-5-1,70,68,66,65,64,62,94,90,78,30.04,30.00,29.93,10,7,1,15,7,24,0.74,8,,83
2013-5-2,75,70,64,65,62,58,88,77,64,30.05,30.00,29.94,10,10,10,21,9,31,0.00,7,,76
2013-5-3,71,68,64,64,62,58,94,83,63,29.97,29.89,29.84,10,8,2,15,9,23,0.06,8,,83
2013-5-4,66,57,46,63,46,37,96,81,33,29.94,29.90,29.86,10,7,2,15,6,22,0.44,6,Rain,337
2013-5-5,73,58,44,53,43,38,93,62,30,29.97,29.88,29.81,10,10,10,10,3,21,0.00,1,,232
2013-5-6,68,57,46,55,47,42,90,70,45,30.01,29.97,29.94,10,10,10,9,2,,0.00,5,Rain,250
2013-5-7,75,64,53,57,54,52,94,75,45,30.06,30.01,29.94,10,10,9,8,2,,0.00,5,,330
2013-5-8,82,68,54,62,56,51,93,67,40,30.12,30.08,30.03,10,10,7,7,1,,0.00,2,,219
2013-5-9,86,72,57,64,60,55,100,82,36,30.17,30.11,30.08,10,5,0,9,3,,0.00,1,Fog,216
2013-5-10,79,70,60,66,63,59,100,84,56,30.16,30.07,29.97,10,7,0,18,2,25,0.00,4,Fog,204
2013-5-11,73,68,64,66,64,62,94,87,68,30.07,30.02,29.97,10,9,2,8,2,,0.02,4,Rain,225
2013-5-12,79,70,57,64,57,49,100,72,38,30.12,30.05,29.99,10,8,2,13,2,,0.00,2,,7
2013-5-13,77,64,50,50,43,35,83,56,24,30.28,30.21,30.13,10,10,10,12,4,,0.00,0,,6
2013-5-14,84,67,50,54,49,46,86,56,29,30.30,30.23,30.17,10,10,10,7,2,,0.00,0,,212
2013-5-15,84,70,55,59,54,51,90,58,34,30.24,30.16,30.08,10,10,10,10,2,,0.00,0,,208
2013-5-16,82,72,62,66,61,55,90,72,46,30.12,30.07,30.01,10,10,8,12,3,,0.00,2,,187
2013-5-17,84,75,66,68,66,62,96,82,46,30.11,30.07,30.02,10,6,0,14,5,,0.00,5,Fog,181
2013-5-18,84,76,69,71,68,66,94,82,55,30.15,30.08,30.03,10,9,5,10,4,,0.02,5,Thunderstorm,206
2013-5-19,84,76,69,70,69,66,100,84,53,30.11,30.06,30.01,10,6,0,10,3,,0.00,5,Fog,214
2013-5-20,90,79,68,70,68,65,96,79,45,30.10,30.04,29.98,10,8,1,14,4,18,0.00,2,,173
2013-5-21,90,79,68,70,67,60,96,76,40,30.06,30.00,29.91,10,7,0,10,2,,0.00,3,Fog,206
2013-5-22,87,76,66,70,68,63,96,81,46,30.02,29.97,29.90,10,6,0,8,1,,0.00,3,Fog,218
2013-5-23,91,78,66,69,64,58,94,67,33,30.05,30.00,29.96,10,9,1,8,1,,0.00,0,,327
2013-5-24,87,76,63,63,57,49,87,56,29,30.19,30.11,30.02,10,10,10,14,4,22,0.00,0,,11
2013-5-25,87,68,50,58,50,46,86,53,24,30.27,30.21,30.17,10,10,10,10,5,,0.00,0,,55
2013-5-26,88,72,57,66,58,53,87,61,34,30.25,30.18,30.14,10,10,10,10,3,,0.00,0,,200
2013-5-27,89,76,64,68,62,55,100,73,31,30.22,30.16,30.08,10,8,0,10,1,17,0.00,2,Fog,172
2013-5-28,89,76,63,72,64,58,93,71,40,30.14,30.10,30.06,10,9,2,12,3,23,0.05,3,Rain-Thunderstorm,170
2013-5-29,91,78,66,71,67,63,91,73,41,30.14,30.09,30.05,10,10,10,14,5,21,0.00,2,Thunderstorm,137
2013-5-30,88,79,70,70,68,63,93,70,43,30.15,30.09,30.03,10,10,10,12,5,20,0.00,4,,138
2013-5-31,84,78,71,70,68,67,90,79,55,30.13,30.10,30.06,10,10,10,12,4,,0.00,5,,133